Terminal Aerodrome Forecast
Issued by NWS

Home | Current Version | Previous Version | Text Only | Print | Product List | Glossary On
Versions: 1 2 3 4 5 6 7 8 9 10 11 12 13 14 15 16 17 18 19 20 21 22 23 24 25
000
FTUS41 KCAR 201134
TAFFVE
TAF
KFVE 201134Z 2012/2112 28012G21KT P6SM BKN025
     FM201500 28015G28KT P6SM OVC045
     FM202200 28013G25KT P6SM BKN070
     FM210300 29010G20KT P6SM SCT140
     FM210700 27006KT P6SM FEW200=

USA.gov is the U.S. government's official web portal to all federal, state and local government web resources and services.